Shelby Township, Michigan
Current Conditions -  °F | °C
As of 12:35 AM on Sunday 26 Oct 2014 (Local Time) from KVLL Reporting Station
Clear Clear  
Wind Chill: 56°   Ceiling: Unl
Heat Index: 56°   Visibility: 10mi
Dew Point: 29°   Wind: 9mph
Humidity: 37%   Direction: 290°WNW
Pressure: 29.82"   Gusts: 20mph
Location:  42.6906°N, 83.0569°W
Report Text: KVLL 260435Z AUTO 29008G17KT 10SM CLR 13/M01 A2982 RMK AO2 T01311015
Loading
Personal Weather Stations






























Interactive Weather Map
Tropical Storm Tracking
New forecast layout! Learn more

10-Day Weather Forecast

Advertisements
Track Severe Weather on mobile